Time;durP1;ratioP1;P1;durP2;ratioP2;P2;SDS_P1;SDS_P2;PMS_P1;PMS_P2;Temp;Humidity;BMP_temperature;BMP_pressure;BME280_temperature;BME280_humidity;BME280_pressure;Samples;Min_cycle;Max_cycle;Signal;HPM_P1;HPM_P2
2022/06/24 00:00:08;;;;;;;2.90;2.70;;;;;;;;;;5031766;28;20266;-51
2022/06/24 00:02:35;;;;;;;3.45;3.13;;;;;;;;;;5027185;28;20246;-49
2022/06/24 00:05:02;;;;;;;2.58;2.38;;;;;;;;;;5024166;28;20232;-50
2022/06/24 00:07:28;;;;;;;2.92;2.72;;;;;;;;;;5019157;28;20232;-50
2022/06/24 00:09:55;;;;;;;3.78;2.60;;;;;;;;;;5036484;28;20327;-51
2022/06/24 00:12:22;;;;;;;2.85;2.65;;;;;;;;;;5034943;28;20461;-50
2022/06/24 00:14:58;;;;;;;3.10;2.58;;;;;;;;;;5035116;28;20248;-50
2022/06/24 00:17:27;;;;;;;5.38;3.28;;;;;;;;;;5037113;28;20285;-50
2022/06/24 00:19:55;;;;;;;3.75;3.00;;;;;;;;;;5027950;28;20240;-50
2022/06/24 00:22:21;;;;;;;3.65;2.78;;;;;;;;;;5038187;28;20344;-50
2022/06/24 00:24:48;;;;;;;3.33;3.03;;;;;;;;;;5018609;28;20247;-51
2022/06/24 00:27:18;;;;;;;3.55;3.28;;;;;;;;;;5032080;28;20233;-50
2022/06/24 00:29:45;;;;;;;5.57;2.95;;;;;;;;;;5044011;28;20231;-52
2022/06/24 00:32:12;;;;;;;3.08;2.78;;;;;;;;;;5040214;28;20236;-50
2022/06/24 00:34:39;;;;;;;4.95;2.70;;;;;;;;;;5041436;28;20244;-51
2022/06/24 00:37:28;;;;;;;4.22;3.05;;;;;;;;;;5038849;28;20241;-51
2022/06/24 00:39:55;;;;;;;2.83;2.50;;;;;;;;;;5018304;28;20260;-51
2022/06/24 00:42:21;;;;;;;6.45;2.95;;;;;;;;;;5024631;28;20229;-50
2022/06/24 00:44:50;;;;;;;2.78;2.58;;;;;;;;;;5014815;28;20241;-50
2022/06/24 00:47:18;;;;;;;3.17;2.88;;;;;;;;;;5034686;28;20239;-50
2022/06/24 00:49:46;;;;;;;3.33;2.90;;;;;;;;;;5041247;28;20311;-51
2022/06/24 00:52:14;;;;;;;4.32;3.08;;;;;;;;;;5033008;28;20722;-50
2022/06/24 00:54:43;;;;;;;2.92;2.72;;;;;;;;;;5029116;28;20905;-51
2022/06/24 00:57:09;;;;;;;3.25;3.05;;;;;;;;;;5040841;28;20232;-51
2022/06/24 00:59:36;;;;;;;5.50;3.22;;;;;;;;;;5024051;28;20266;-51
2022/06/24 01:02:05;;;;;;;4.22;2.70;;;;;;;;;;5040468;28;20224;-50
2022/06/24 01:04:33;;;;;;;3.33;3.03;;;;;;;;;;5030099;28;20236;-50
2022/06/24 01:06:59;;;;;;;3.22;2.92;;;;;;;;;;5028761;28;20316;-50
2022/06/24 01:09:25;;;;;;;3.25;2.97;;;;;;;;;;5033462;28;20240;-51
2022/06/24 01:11:52;;;;;;;4.13;3.25;;;;;;;;;;5048121;28;20745;-50
2022/06/24 01:14:18;;;;;;;3.42;3.13;;;;;;;;;;5025508;28;20237;-50
2022/06/24 01:16:45;;;;;;;3.15;2.95;;;;;;;;;;5024655;28;20236;-50
2022/06/24 01:19:12;;;;;;;3.05;2.85;;;;;;;;;;5025107;28;20256;-50
2022/06/24 01:21:41;;;;;;;3.90;3.55;;;;;;;;;;5019454;28;20659;-50
2022/06/24 01:24:08;;;;;;;4.43;3.95;;;;;;;;;;5026169;28;20267;-50
2022/06/24 01:26:35;;;;;;;3.28;3.00;;;;;;;;;;5035809;28;20306;-50
2022/06/24 01:29:01;;;;;;;6.60;3.70;;;;;;;;;;5026331;28;20229;-50
2022/06/24 01:31:28;;;;;;;3.67;3.38;;;;;;;;;;5023418;28;20235;-50
2022/06/24 01:33:54;;;;;;;3.47;3.15;;;;;;;;;;5028670;28;20367;-49
2022/06/24 01:36:20;;;;;;;3.50;3.20;;;;;;;;;;5035452;28;20240;-50
2022/06/24 01:38:48;;;;;;;3.50;2.90;;;;;;;;;;5030859;28;20229;-50
2022/06/24 01:41:14;;;;;;;4.47;3.67;;;;;;;;;;5036459;28;20224;-50
2022/06/24 01:43:41;;;;;;;3.22;2.92;;;;;;;;;;5026776;28;20243;-49
2022/06/24 01:46:07;;;;;;;3.65;3.25;;;;;;;;;;5036274;28;20239;-50
2022/06/24 01:48:34;;;;;;;4.25;3.55;;;;;;;;;;5038005;28;20240;-49
2022/06/24 01:51:00;;;;;;;3.50;3.22;;;;;;;;;;5029686;28;20229;-49
2022/06/24 01:53:26;;;;;;;4.45;3.90;;;;;;;;;;5034372;28;20532;-50
2022/06/24 01:55:54;;;;;;;3.83;3.50;;;;;;;;;;5038434;28;20247;-51
2022/06/24 01:58:20;;;;;;;4.45;3.20;;;;;;;;;;5036624;28;20232;-50
2022/06/24 02:00:47;;;;;;;4.13;3.20;;;;;;;;;;5040260;28;20232;-50
2022/06/24 02:03:13;;;;;;;3.97;3.50;;;;;;;;;;5027453;28;20243;-50
2022/06/24 02:05:40;;;;;;;3.38;3.08;;;;;;;;;;5027580;28;20236;-50
2022/06/24 02:08:06;;;;;;;5.65;3.63;;;;;;;;;;5032223;28;20227;-50
2022/06/24 02:13:30;;;;;;;3.58;3.28;;;;;;;;;;5036175;28;20726;-50
2022/06/24 02:15:56;;;;;;;3.88;3.58;;;;;;;;;;5039042;28;20252;-51
2022/06/24 02:18:23;;;;;;;6.30;4.25;;;;;;;;;;5038898;28;20242;-50
2022/06/24 02:20:50;;;;;;;5.05;3.75;;;;;;;;;;5050908;28;20590;-50
2022/06/24 02:23:18;;;;;;;3.38;3.08;;;;;;;;;;5044667;28;20232;-50
2022/06/24 02:25:45;;;;;;;3.83;3.55;;;;;;;;;;5046216;28;20228;-50
2022/06/24 02:28:11;;;;;;;3.63;3.42;;;;;;;;;;5045726;28;20907;-50
2022/06/24 02:30:39;;;;;;;3.35;3.15;;;;;;;;;;5037620;28;20232;-51
2022/06/24 02:33:06;;;;;;;3.88;3.60;;;;;;;;;;5037658;28;20233;-50
2022/06/24 02:35:32;;;;;;;6.63;3.72;;;;;;;;;;5037221;28;20239;-51
2022/06/24 02:37:59;;;;;;;3.58;3.30;;;;;;;;;;5031228;28;20263;-50
2022/06/24 02:43:11;;;;;;;5.22;4.00;;;;;;;;;;5036336;28;20421;-51
2022/06/24 02:45:39;;;;;;;4.15;3.75;;;;;;;;;;5044159;28;20238;-50
2022/06/24 02:48:06;;;;;;;4.47;3.60;;;;;;;;;;5044823;28;20603;-50
2022/06/24 02:50:37;;;;;;;4.07;3.75;;;;;;;;;;5042848;28;20227;-49
2022/06/24 02:53:04;;;;;;;3.85;3.55;;;;;;;;;;5036989;28;20239;-50
2022/06/24 02:55:30;;;;;;;4.38;4.00;;;;;;;;;;5035222;28;20239;-50
2022/06/24 02:57:56;;;;;;;4.25;3.90;;;;;;;;;;5035890;28;20231;-51
2022/06/24 03:00:23;;;;;;;3.90;3.60;;;;;;;;;;5029860;28;20240;-50
2022/06/24 03:02:50;;;;;;;4.50;4.10;;;;;;;;;;5032752;28;20239;-51
2022/06/24 03:05:17;;;;;;;9.82;3.85;;;;;;;;;;5022317;28;20334;-50
2022/06/24 03:07:43;;;;;;;8.43;3.85;;;;;;;;;;5027950;28;20243;-50
2022/06/24 03:10:10;;;;;;;5.03;3.90;;;;;;;;;;5040964;28;21035;-50
2022/06/24 03:12:36;;;;;;;6.18;3.85;;;;;;;;;;5039712;28;20310;-50
2022/06/24 03:15:03;;;;;;;4.95;4.43;;;;;;;;;;5040799;28;20246;-50
2022/06/24 03:17:29;;;;;;;6.47;3.50;;;;;;;;;;5030021;28;20263;-50
2022/06/24 03:19:57;;;;;;;4.93;3.97;;;;;;;;;;5025831;28;20248;-50
2022/06/24 03:22:23;;;;;;;3.78;3.47;;;;;;;;;;5039499;28;20661;-49
2022/06/24 03:24:50;;;;;;;5.55;3.28;;;;;;;;;;5029954;28;20235;-51
2022/06/24 03:27:16;;;;;;;5.00;3.75;;;;;;;;;;5031445;28;20311;-50
2022/06/24 03:29:42;;;;;;;4.32;3.78;;;;;;;;;;5026485;28;20232;-49
2022/06/24 03:32:09;;;;;;;4.63;4.13;;;;;;;;;;5024151;28;20229;-49
2022/06/24 03:34:35;;;;;;;5.75;3.90;;;;;;;;;;5032592;28;20237;-50
2022/06/24 03:37:03;;;;;;;3.80;3.50;;;;;;;;;;5024463;28;20235;-50
2022/06/24 03:39:29;;;;;;;3.45;3.25;;;;;;;;;;5027725;28;20726;-49
2022/06/24 03:41:56;;;;;;;3.90;3.60;;;;;;;;;;5023124;28;20706;-50
2022/06/24 03:44:22;;;;;;;4.13;3.72;;;;;;;;;;5030841;28;20237;-50
2022/06/24 03:46:48;;;;;;;3.72;3.42;;;;;;;;;;5045095;28;20258;-50
2022/06/24 03:49:15;;;;;;;5.50;3.47;;;;;;;;;;5034470;28;20238;-50
2022/06/24 03:51:41;;;;;;;6.07;4.32;;;;;;;;;;5036555;28;20239;-51
2022/06/24 03:54:09;;;;;;;4.10;3.47;;;;;;;;;;5028306;28;20251;-51
2022/06/24 03:56:36;;;;;;;6.82;3.90;;;;;;;;;;5025231;28;20250;-50
2022/06/24 03:59:02;;;;;;;4.03;3.55;;;;;;;;;;5031489;28;20232;-50
2022/06/24 04:01:28;;;;;;;4.10;3.47;;;;;;;;;;5023044;28;20236;-50
2022/06/24 04:03:55;;;;;;;5.53;4.22;;;;;;;;;;5033767;28;20615;-50
2022/06/24 04:06:21;;;;;;;3.95;3.65;;;;;;;;;;5033579;28;20233;-50
2022/06/24 04:08:47;;;;;;;3.80;3.50;;;;;;;;;;5020702;28;20247;-49
2022/06/24 04:11:15;;;;;;;4.75;4.38;;;;;;;;;;5032761;28;20233;-50
2022/06/24 04:13:42;;;;;;;3.92;3.63;;;;;;;;;;5029518;28;20240;-50
2022/06/24 04:16:09;;;;;;;4.38;4.05;;;;;;;;;;5037871;28;20603;-50
2022/06/24 04:18:35;;;;;;;7.68;4.35;;;;;;;;;;5024822;28;20232;-50
2022/06/24 04:21:01;;;;;;;5.80;3.78;;;;;;;;;;5034942;28;20724;-49
2022/06/24 04:23:28;;;;;;;4.30;3.55;;;;;;;;;;5040755;28;20254;-50
2022/06/24 04:25:54;;;;;;;8.00;4.43;;;;;;;;;;5040486;28;20236;-49
2022/06/24 04:28:22;;;;;;;4.60;4.20;;;;;;;;;;5043594;28;20251;-49
2022/06/24 04:30:48;;;;;;;7.18;4.20;;;;;;;;;;5045321;28;20735;-50
2022/06/24 04:33:14;;;;;;;4.38;4.05;;;;;;;;;;5042878;28;20240;-50
2022/06/24 04:35:41;;;;;;;4.00;3.70;;;;;;;;;;5043053;28;20367;-50
2022/06/24 04:38:07;;;;;;;5.70;4.60;;;;;;;;;;5045042;28;20698;-50
2022/06/24 04:40:34;;;;;;;4.47;4.07;;;;;;;;;;5041437;28;20224;-49
2022/06/24 04:43:00;;;;;;;4.32;4.03;;;;;;;;;;5042227;28;20236;-50
2022/06/24 04:45:28;;;;;;;4.18;3.78;;;;;;;;;;5044679;28;20255;-50
2022/06/24 04:47:54;;;;;;;4.55;4.13;;;;;;;;;;5048038;28;20228;-50
2022/06/24 04:50:20;;;;;;;8.98;3.80;;;;;;;;;;5044211;28;20370;-50
2022/06/24 04:52:47;;;;;;;3.75;3.45;;;;;;;;;;5042825;28;20230;-50
2022/06/24 04:55:13;;;;;;;4.32;4.00;;;;;;;;;;5042854;28;20241;-50
2022/06/24 04:57:39;;;;;;;5.20;4.70;;;;;;;;;;5044965;28;20252;-51
2022/06/24 05:00:08;;;;;;;4.57;4.15;;;;;;;;;;5042619;28;20704;-50
2022/06/24 05:02:36;;;;;;;4.10;3.72;;;;;;;;;;5038969;28;20598;-51
2022/06/24 05:05:03;;;;;;;3.80;3.53;;;;;;;;;;5039546;28;20233;-51
2022/06/24 05:07:29;;;;;;;3.97;3.63;;;;;;;;;;5033273;28;20586;-49
2022/06/24 05:09:56;;;;;;;3.90;3.60;;;;;;;;;;5032140;28;20237;-49
2022/06/24 05:12:22;;;;;;;4.63;4.03;;;;;;;;;;5030829;28;20315;-50
2022/06/24 05:14:49;;;;;;;5.03;3.78;;;;;;;;;;5024952;28;20236;-49
2022/06/24 05:17:15;;;;;;;4.20;3.80;;;;;;;;;;5035897;28;20259;-50
2022/06/24 05:19:43;;;;;;;4.20;3.83;;;;;;;;;;5037913;28;20229;-50
2022/06/24 05:22:09;;;;;;;3.88;3.58;;;;;;;;;;5028408;28;20229;-50
2022/06/24 05:24:36;;;;;;;3.80;2.95;;;;;;;;;;5030947;28;20323;-49
2022/06/24 05:27:02;;;;;;;4.40;3.95;;;;;;;;;;5032486;28;20253;-50
2022/06/24 05:29:28;;;;;;;4.18;3.10;;;;;;;;;;5040199;28;20248;-50
2022/06/24 05:31:55;;;;;;;6.15;3.65;;;;;;;;;;5046074;28;20247;-50
2022/06/24 05:34:21;;;;;;;6.13;3.60;;;;;;;;;;5030149;28;20830;-50
2022/06/24 05:36:49;;;;;;;5.43;3.40;;;;;;;;;;5025654;28;20253;-50
2022/06/24 05:39:15;;;;;;;3.75;3.33;;;;;;;;;;5034176;28;20230;-50
2022/06/24 05:41:43;;;;;;;3.42;3.10;;;;;;;;;;5042739;28;20718;-50
2022/06/24 05:44:09;;;;;;;4.20;3.45;;;;;;;;;;5033233;28;20323;-51
2022/06/24 05:46:36;;;;;;;5.22;3.50;;;;;;;;;;5026495;28;20950;-51
2022/06/24 05:49:02;;;;;;;4.18;3.75;;;;;;;;;;5037158;28;20236;-51
2022/06/24 05:51:29;;;;;;;3.80;3.38;;;;;;;;;;5044466;28;20263;-51
2022/06/24 05:56:41;;;;;;;4.72;3.40;;;;;;;;;;5042986;28;20712;-51
2022/06/24 05:59:07;;;;;;;3.17;2.88;;;;;;;;;;5037823;28;20228;-50
2022/06/24 06:01:34;;;;;;;3.97;3.10;;;;;;;;;;5038711;28;20869;-50
2022/06/24 06:04:00;;;;;;;4.40;3.13;;;;;;;;;;5025409;28;20439;-49
2022/06/24 06:06:26;;;;;;;7.03;3.70;;;;;;;;;;5035971;28;20317;-50
2022/06/24 06:08:53;;;;;;;4.10;3.15;;;;;;;;;;5031967;28;20240;-50
2022/06/24 06:11:21;;;;;;;5.75;3.65;;;;;;;;;;5035184;28;20236;-50
2022/06/24 06:13:48;;;;;;;3.58;3.28;;;;;;;;;;5028533;28;20243;-50
2022/06/24 06:16:15;;;;;;;4.90;3.22;;;;;;;;;;5036665;28;20233;-50
2022/06/24 06:18:42;;;;;;;3.45;3.15;;;;;;;;;;5026751;28;20224;-50
2022/06/24 06:21:09;;;;;;;5.05;3.15;;;;;;;;;;5033952;28;20240;-50
2022/06/24 06:23:36;;;;;;;5.63;3.47;;;;;;;;;;5039713;28;20238;-50
2022/06/24 06:26:04;;;;;;;3.63;3.33;;;;;;;;;;5034871;28;20320;-50
2022/06/24 06:28:32;;;;;;;4.45;3.15;;;;;;;;;;5024576;28;20309;-50
2022/06/24 06:30:58;;;;;;;5.43;3.20;;;;;;;;;;5030669;28;20239;-50
2022/06/24 06:33:25;;;;;;;4.07;3.30;;;;;;;;;;5039076;28;20235;-50
2022/06/24 06:35:51;;;;;;;5.57;2.80;;;;;;;;;;5035539;28;20240;-50
2022/06/24 06:38:18;;;;;;;3.33;3.13;;;;;;;;;;5032065;28;20233;-51
2022/06/24 06:40:44;;;;;;;5.38;3.53;;;;;;;;;;5030186;28;20243;-50
2022/06/24 06:43:11;;;;;;;5.32;3.53;;;;;;;;;;5036977;28;20241;-49
2022/06/24 06:45:38;;;;;;;5.70;4.05;;;;;;;;;;5037289;28;20240;-50
2022/06/24 06:48:05;;;;;;;3.55;3.28;;;;;;;;;;5032087;28;20228;-51
2022/06/24 06:50:32;;;;;;;4.32;3.15;;;;;;;;;;5033837;28;20679;-49
2022/06/24 06:52:58;;;;;;;3.53;3.22;;;;;;;;;;5026297;28;20224;-53
2022/06/24 06:55:25;;;;;;;6.63;3.30;;;;;;;;;;5041561;28;20318;-51
2022/06/24 06:57:51;;;;;;;3.03;2.72;;;;;;;;;;5041812;28;20259;-51
2022/06/24 07:00:18;;;;;;;3.63;3.05;;;;;;;;;;5026395;28;20228;-51
2022/06/24 07:02:46;;;;;;;3.55;3.17;;;;;;;;;;5028966;28;20315;-52
2022/06/24 07:05:12;;;;;;;5.00;3.15;;;;;;;;;;5027826;28;20328;-51
2022/06/24 07:07:38;;;;;;;6.32;3.47;;;;;;;;;;5026382;28;20233;-51
2022/06/24 07:10:05;;;;;;;10.07;3.50;;;;;;;;;;5032802;28;20237;-52
2022/06/24 07:12:31;;;;;;;5.50;3.60;;;;;;;;;;5027271;28;20243;-51
2022/06/24 07:14:58;;;;;;;3.90;3.50;;;;;;;;;;5033850;28;20725;-55
2022/06/24 07:17:24;;;;;;;3.63;3.10;;;;;;;;;;5040918;28;20231;-51
2022/06/24 07:19:52;;;;;;;5.00;2.95;;;;;;;;;;5027528;28;20615;-51
2022/06/24 07:22:18;;;;;;;3.10;2.90;;;;;;;;;;5037659;28;20256;-53
2022/06/24 07:24:45;;;;;;;2.72;2.47;;;;;;;;;;5029341;28;20239;-52
2022/06/24 07:27:11;;;;;;;4.43;3.30;;;;;;;;;;5015372;28;20243;-51
2022/06/24 07:29:38;;;;;;;3.95;2.80;;;;;;;;;;5026058;28;20789;-51
2022/06/24 07:32:05;;;;;;;5.20;3.08;;;;;;;;;;5040221;28;20228;-51
2022/06/24 07:34:32;;;;;;;3.55;3.25;;;;;;;;;;5034369;28;20262;-52
2022/06/24 07:36:59;;;;;;;4.57;2.80;;;;;;;;;;5032613;28;20225;-51
2022/06/24 07:39:26;;;;;;;3.20;3.00;;;;;;;;;;5040267;28;20267;-50
2022/06/24 07:41:53;;;;;;;2.85;2.65;;;;;;;;;;5030364;28;20236;-52
2022/06/24 07:44:19;;;;;;;5.43;3.40;;;;;;;;;;5025769;28;20671;-51
2022/06/24 07:46:46;;;;;;;3.47;3.17;;;;;;;;;;5021544;28;20235;-51
2022/06/24 07:49:12;;;;;;;3.10;2.65;;;;;;;;;;5039857;28;20264;-51
2022/06/24 07:51:39;;;;;;;5.25;2.70;;;;;;;;;;5033161;28;20251;-51
2022/06/24 07:54:07;;;;;;;4.85;3.22;;;;;;;;;;5041141;28;20238;-50
2022/06/24 07:59:17;;;;;;;3.47;3.17;;;;;;;;;;5019682;28;20282;-50
2022/06/24 08:01:44;;;;;;;6.80;3.75;;;;;;;;;;5012198;28;20229;-51
2022/06/24 08:04:10;;;;;;;3.83;3.50;;;;;;;;;;5023523;28;20251;-54
2022/06/24 08:06:37;;;;;;;3.35;2.85;;;;;;;;;;5018468;28;20240;-51
2022/06/24 08:09:07;;;;;;;2.80;2.60;;;;;;;;;;5022076;28;20727;-51
2022/06/24 08:11:36;;;;;;;2.90;2.70;;;;;;;;;;5038153;28;20243;-52
2022/06/24 08:14:02;;;;;;;3.05;2.72;;;;;;;;;;5038251;28;20237;-51
2022/06/24 08:16:29;;;;;;;4.03;3.33;;;;;;;;;;5028610;28;20318;-50
2022/06/24 08:18:56;;;;;;;3.65;2.70;;;;;;;;;;5029961;28;20246;-51
2022/06/24 08:21:22;;;;;;;5.45;2.80;;;;;;;;;;5037002;28;20720;-51
2022/06/24 08:23:49;;;;;;;5.28;3.30;;;;;;;;;;5036968;28;20737;-51
2022/06/24 08:26:16;;;;;;;4.82;3.08;;;;;;;;;;5024618;28;20224;-52
2022/06/24 08:28:44;;;;;;;3.45;3.17;;;;;;;;;;5022563;28;20233;-51
2022/06/24 08:31:10;;;;;;;3.65;2.95;;;;;;;;;;5026636;28;20244;-52
2022/06/24 08:33:37;;;;;;;6.55;3.20;;;;;;;;;;5033842;28;20623;-52
2022/06/24 08:36:03;;;;;;;3.90;3.23;;;;;;;;;;5029462;28;20437;-50
2022/06/24 08:38:30;;;;;;;3.17;2.85;;;;;;;;;;5035927;28;20235;-51
2022/06/24 08:40:57;;;;;;;3.30;2.95;;;;;;;;;;5045785;28;20239;-51
2022/06/24 08:43:24;;;;;;;3.67;2.80;;;;;;;;;;5038390;28;20585;-50
2022/06/24 08:45:51;;;;;;;4.32;3.00;;;;;;;;;;5029889;28;20323;-51
2022/06/24 08:48:18;;;;;;;3.03;2.70;;;;;;;;;;5023436;28;20239;-51
2022/06/24 08:50:46;;;;;;;2.90;2.60;;;;;;;;;;5046979;28;20232;-50
2022/06/24 08:53:13;;;;;;;3.60;3.00;;;;;;;;;;5046812;28;20239;-52
2022/06/24 08:55:40;;;;;;;4.25;2.95;;;;;;;;;;5045513;28;20220;-52
2022/06/24 08:58:07;;;;;;;2.88;2.67;;;;;;;;;;5035798;28;20228;-51
2022/06/24 09:00:34;;;;;;;4.00;3.00;;;;;;;;;;5039796;28;20232;-51
2022/06/24 09:03:01;;;;;;;6.20;3.63;;;;;;;;;;5033626;28;20270;-50
2022/06/24 09:05:28;;;;;;;3.42;3.08;;;;;;;;;;5041442;28;20919;-49
2022/06/24 09:07:57;;;;;;;3.17;2.97;;;;;;;;;;5040759;28;20232;-51
2022/06/24 09:10:24;;;;;;;3.20;3.00;;;;;;;;;;5023933;28;20260;-50
2022/06/24 09:12:50;;;;;;;3.20;3.00;;;;;;;;;;5029997;28;20268;-52
2022/06/24 09:15:17;;;;;;;3.00;2.80;;;;;;;;;;5026969;28;20307;-51
2022/06/24 09:17:44;;;;;;;5.35;2.83;;;;;;;;;;5025527;28;20229;-52
2022/06/24 09:20:13;;;;;;;5.15;2.97;;;;;;;;;;5027007;28;20259;-53
2022/06/24 09:22:39;;;;;;;2.88;2.67;;;;;;;;;;5038460;28;20237;-51
2022/06/24 09:25:06;;;;;;;4.07;3.10;;;;;;;;;;5042538;28;20701;-51
2022/06/24 09:27:33;;;;;;;3.42;2.88;;;;;;;;;;5043075;28;20630;-51
2022/06/24 09:29:59;;;;;;;3.22;2.92;;;;;;;;;;5012289;28;20229;-51
2022/06/24 09:32:26;;;;;;;7.70;3.10;;;;;;;;;;5044909;28;20243;-51
2022/06/24 09:35:03;;;;;;;3.65;2.40;;;;;;;;;;5044666;28;20236;-52
2022/06/24 09:37:40;;;;;;;3.17;2.92;;;;;;;;;;5035592;28;20318;-51
2022/06/24 09:40:20;;;;;;;7.68;2.67;;;;;;;;;;5031016;28;20242;-50
2022/06/24 09:42:54;;;;;;;4.72;2.75;;;;;;;;;;5033877;28;20227;-50
2022/06/24 09:45:20;;;;;;;2.80;2.30;;;;;;;;;;5031801;28;20305;-50
2022/06/24 09:47:47;;;;;;;3.28;2.97;;;;;;;;;;5023960;28;20240;-50
2022/06/24 09:50:14;;;;;;;3.05;2.75;;;;;;;;;;5032273;28;20495;-51
2022/06/24 09:52:41;;;;;;;2.63;2.42;;;;;;;;;;5033847;28;20236;-50
2022/06/24 09:55:09;;;;;;;3.22;2.80;;;;;;;;;;5042760;28;20242;-50
2022/06/24 09:57:36;;;;;;;4.07;3.00;;;;;;;;;;5038515;28;20745;-51
2022/06/24 10:02:47;;;;;;;3.40;2.63;;;;;;;;;;5033624;28;20243;-51
2022/06/24 10:05:15;;;;;;;2.42;2.22;;;;;;;;;;5034052;28;20228;-51
2022/06/24 10:07:46;;;;;;;3.83;2.47;;;;;;;;;;5032063;28;20232;-51
2022/06/24 10:10:13;;;;;;;3.13;2.40;;;;;;;;;;5040921;28;20234;-51
2022/06/24 10:12:40;;;;;;;2.58;2.13;;;;;;;;;;5032643;28;20232;-52
2022/06/24 10:15:07;;;;;;;4.22;2.33;;;;;;;;;;5029001;28;20258;-52
2022/06/24 10:17:35;;;;;;;2.65;2.45;;;;;;;;;;5028392;28;20236;-53
2022/06/24 10:20:02;;;;;;;4.95;2.80;;;;;;;;;;5031726;28;20293;-50
2022/06/24 10:22:37;;;;;;;9.50;3.00;;;;;;;;;;5046211;28;20738;-50
2022/06/24 10:25:05;;;;;;;4.10;2.47;;;;;;;;;;5036547;28;20584;-50
2022/06/24 10:27:53;;;;;;;3.10;2.80;;;;;;;;;;5035518;28;20235;-50
2022/06/24 10:30:35;;;;;;;3.08;2.53;;;;;;;;;;5026613;28;20228;-50
2022/06/24 10:33:14;;;;;;;3.03;2.75;;;;;;;;;;5028114;28;20240;-51
2022/06/24 10:36:00;;;;;;;2.22;2.13;;;;;;;;;;5037498;28;20628;-52
2022/06/24 10:38:27;;;;;;;3.50;2.45;;;;;;;;;;5039801;28;20310;-51
2022/06/24 10:40:57;;;;;;;4.10;2.83;;;;;;;;;;5044866;28;20248;-51
2022/06/24 10:43:36;;;;;;;2.40;2.00;;;;;;;;;;5040138;28;20232;-51
2022/06/24 10:46:18;;;;;;;3.10;2.55;;;;;;;;;;5036795;28;20912;-51
2022/06/24 10:48:57;;;;;;;2.40;2.20;;;;;;;;;;5015555;28;20432;-51
2022/06/24 10:51:23;;;;;;;2.88;2.22;;;;;;;;;;5019493;28;20485;-50
2022/06/24 10:54:09;;;;;;;3.00;2.80;;;;;;;;;;5018283;28;20239;-51
2022/06/24 10:56:39;;;;;;;4.40;2.67;;;;;;;;;;5043974;28;21198;-52
2022/06/24 10:59:06;;;;;;;3.08;2.75;;;;;;;;;;5023932;28;20427;-50
2022/06/24 11:01:32;;;;;;;4.00;2.25;;;;;;;;;;5027464;28;20235;-52
2022/06/24 11:04:00;;;;;;;3.00;2.80;;;;;;;;;;5029036;28;20237;-52
2022/06/24 11:06:26;;;;;;;2.70;2.50;;;;;;;;;;5032977;28;20229;-52
2022/06/24 11:08:52;;;;;;;5.38;2.65;;;;;;;;;;5016931;28;20732;-54
2022/06/24 11:11:27;;;;;;;2.47;2.28;;;;;;;;;;5031230;28;20719;-52
2022/06/24 11:13:55;;;;;;;3.25;2.67;;;;;;;;;;5022171;28;20611;-51
2022/06/24 11:16:21;;;;;;;4.65;3.13;;;;;;;;;;5026597;28;20232;-51
2022/06/24 11:18:49;;;;;;;2.50;2.30;;;;;;;;;;5028423;28;20232;-51
2022/06/24 11:21:17;;;;;;;4.40;2.60;;;;;;;;;;5033850;28;20227;-50
2022/06/24 11:23:46;;;;;;;3.58;3.28;;;;;;;;;;5028247;28;20706;-51
2022/06/24 11:26:13;;;;;;;2.85;2.60;;;;;;;;;;5030555;28;20239;-52
2022/06/24 11:28:41;;;;;;;3.67;3.00;;;;;;;;;;5036903;28;20609;-51
2022/06/24 11:31:16;;;;;;;2.97;2.65;;;;;;;;;;5032183;28;20237;-52
2022/06/24 11:33:42;;;;;;;3.97;2.85;;;;;;;;;;5031572;28;20523;-53
2022/06/24 11:36:09;;;;;;;4.40;2.63;;;;;;;;;;5033764;28;20232;-51
2022/06/24 11:38:47;;;;;;;3.03;2.72;;;;;;;;;;5038634;28;20231;-51
2022/06/24 11:41:20;;;;;;;3.03;2.75;;;;;;;;;;5034174;28;20694;-51
2022/06/24 11:43:50;;;;;;;3.60;2.90;;;;;;;;;;5031546;28;20228;-51
2022/06/24 11:46:18;;;;;;;2.90;2.70;;;;;;;;;;5029688;28;20259;-52
2022/06/24 11:48:44;;;;;;;3.20;2.88;;;;;;;;;;5029082;28;20236;-52
2022/06/24 11:51:17;;;;;;;3.20;2.90;;;;;;;;;;5026419;28;20248;-51
2022/06/24 11:53:55;;;;;;;2.78;2.58;;;;;;;;;;5033099;28;20232;-51
2022/06/24 11:56:21;;;;;;;2.38;2.17;;;;;;;;;;5041569;28;20223;-52
2022/06/24 11:58:47;;;;;;;5.85;2.15;;;;;;;;;;5039420;28;20242;-50
2022/06/24 12:01:14;;;;;;;3.42;2.38;;;;;;;;;;5036144;28;20265;-51
2022/06/24 12:03:42;;;;;;;5.15;2.63;;;;;;;;;;5030254;28;20251;-52
2022/06/24 12:06:10;;;;;;;2.45;2.35;;;;;;;;;;5038179;28;20600;-52
2022/06/24 12:08:37;;;;;;;4.93;2.72;;;;;;;;;;5037685;28;20827;-51
2022/06/24 12:11:12;;;;;;;2.58;2.38;;;;;;;;;;5024894;28;20655;-51
2022/06/24 12:13:39;;;;;;;3.58;2.58;;;;;;;;;;5030140;28;20434;-51
2022/06/24 12:16:06;;;;;;;2.88;2.33;;;;;;;;;;5030005;28;20235;-51
2022/06/24 12:18:32;;;;;;;6.80;2.83;;;;;;;;;;5038666;28;20415;-50
2022/06/24 12:21:00;;;;;;;2.65;2.45;;;;;;;;;;5031704;28;20698;-51
2022/06/24 12:23:32;;;;;;;2.72;2.53;;;;;;;;;;5035383;28;20239;-51
2022/06/24 12:25:58;;;;;;;5.22;2.60;;;;;;;;;;5038645;28;20237;-50
2022/06/24 12:28:25;;;;;;;2.60;2.40;;;;;;;;;;5030564;28;20235;-53
2022/06/24 12:30:58;;;;;;;4.47;2.92;;;;;;;;;;5041865;28;20240;-50
2022/06/24 12:33:25;;;;;;;4.38;2.10;;;;;;;;;;5035989;28;20830;-53
2022/06/24 12:36:04;;;;;;;3.00;2.17;;;;;;;;;;5036324;28;20311;-51
2022/06/24 12:38:30;;;;;;;4.68;2.28;;;;;;;;;;5038129;28;20445;-52
2022/06/24 12:41:05;;;;;;;3.00;2.25;;;;;;;;;;5034504;28;20707;-50
2022/06/24 12:43:31;;;;;;;3.78;2.10;;;;;;;;;;5036452;28;20222;-52
2022/06/24 12:45:58;;;;;;;2.45;2.05;;;;;;;;;;5041302;28;20224;-51
2022/06/24 12:51:11;;;;;;;2.95;2.10;;;;;;;;;;5038167;28;20533;-51
2022/06/24 12:53:38;;;;;;;2.92;2.15;;;;;;;;;;5037696;28;20741;-51
2022/06/24 12:56:04;;;;;;;3.15;1.98;;;;;;;;;;5039092;28;20242;-50
2022/06/24 12:58:31;;;;;;;2.13;1.98;;;;;;;;;;5041930;28;20429;-51
2022/06/24 13:00:58;;;;;;;2.97;2.10;;;;;;;;;;5028235;28;20231;-51
2022/06/24 13:03:24;;;;;;;3.40;1.92;;;;;;;;;;5032685;28;20315;-51
2022/06/24 13:05:50;;;;;;;1.98;1.88;;;;;;;;;;5038816;28;20235;-52
2022/06/24 13:08:19;;;;;;;2.20;1.65;;;;;;;;;;5040142;28;20239;-52
2022/06/24 13:10:45;;;;;;;1.77;1.67;;;;;;;;;;5037367;28;20236;-53
2022/06/24 13:13:11;;;;;;;3.05;2.08;;;;;;;;;;5032249;28;20247;-52
2022/06/24 13:15:38;;;;;;;7.22;2.00;;;;;;;;;;5024987;28;20224;-51
2022/06/24 13:18:04;;;;;;;2.42;1.92;;;;;;;;;;5032397;28;20259;-50
2022/06/24 13:20:32;;;;;;;3.78;2.00;;;;;;;;;;5040732;28;20652;-51
2022/06/24 13:22:58;;;;;;;3.17;2.10;;;;;;;;;;5036616;28;20312;-52
2022/06/24 13:25:26;;;;;;;1.95;1.67;;;;;;;;;;5026765;28;20250;-51
2022/06/24 13:27:52;;;;;;;2.67;1.48;;;;;;;;;;5029943;28;20314;-52
2022/06/24 13:30:19;;;;;;;2.65;2.45;;;;;;;;;;5035173;28;20228;-51
2022/06/24 13:32:45;;;;;;;5.22;2.03;;;;;;;;;;5032760;28;20224;-51
2022/06/24 13:35:12;;;;;;;3.20;1.85;;;;;;;;;;5021437;28;20754;-51
2022/06/24 13:37:39;;;;;;;5.15;2.38;;;;;;;;;;5036762;28;20229;-52
2022/06/24 13:40:07;;;;;;;1.92;1.83;;;;;;;;;;5028032;28;20980;-51
2022/06/24 13:42:35;;;;;;;2.97;1.90;;;;;;;;;;5027244;28;20625;-52
2022/06/24 13:45:02;;;;;;;2.95;2.22;;;;;;;;;;5040165;28;20645;-50
2022/06/24 13:47:28;;;;;;;2.65;2.22;;;;;;;;;;5046160;28;20678;-52
2022/06/24 13:49:58;;;;;;;3.67;2.10;;;;;;;;;;5044623;28;20232;-51
2022/06/24 13:52:25;;;;;;;3.03;2.38;;;;;;;;;;5040884;28;20639;-51
2022/06/24 13:54:51;;;;;;;3.17;2.20;;;;;;;;;;5044031;28;20721;-50
2022/06/24 13:57:18;;;;;;;4.43;2.00;;;;;;;;;;5045770;28;20243;-50
2022/06/24 13:59:46;;;;;;;5.72;1.92;;;;;;;;;;5041634;28;20706;-51
2022/06/24 14:02:12;;;;;;;3.28;1.60;;;;;;;;;;5041320;28;20323;-50
2022/06/24 14:04:38;;;;;;;3.13;1.83;;;;;;;;;;5044813;28;20243;-52
2022/06/24 14:07:05;;;;;;;7.47;1.65;;;;;;;;;;5044570;28;20243;-50
2022/06/24 14:09:32;;;;;;;6.22;2.20;;;;;;;;;;5040750;28;20231;-51
2022/06/24 14:11:59;;;;;;;2.10;1.73;;;;;;;;;;5037320;28;20235;-50
2022/06/24 14:14:25;;;;;;;2.03;1.67;;;;;;;;;;5037330;28;20246;-51
2022/06/24 14:16:53;;;;;;;2.13;1.77;;;;;;;;;;5044219;28;20594;-51
2022/06/24 14:19:19;;;;;;;3.15;1.98;;;;;;;;;;5034972;28;20229;-52
2022/06/24 14:21:46;;;;;;;2.13;1.92;;;;;;;;;;5042060;28;20611;-51
2022/06/24 14:26:56;;;;;;;1.85;1.75;;;;;;;;;;5029224;28;20582;-51
2022/06/24 14:29:22;;;;;;;2.30;2.08;;;;;;;;;;5023490;28;20956;-51
2022/06/24 14:31:49;;;;;;;1.90;1.80;;;;;;;;;;5020767;28;20236;-52
2022/06/24 14:34:16;;;;;;;3.22;1.83;;;;;;;;;;5029077;28;20240;-51
2022/06/24 14:36:43;;;;;;;3.45;1.85;;;;;;;;;;5027311;28;20231;-54
2022/06/24 14:41:59;;;;;;;5.30;2.35;;;;;;;;;;4970191;28;20317;-50
2022/06/24 14:44:26;;;;;;;2.22;1.85;;;;;;;;;;5048031;28;20610;-52
2022/06/24 14:46:52;;;;;;;6.85;1.60;;;;;;;;;;5044767;28;20231;-51
2022/06/24 14:49:20;;;;;;;3.28;2.05;;;;;;;;;;5043348;28;20228;-51
2022/06/24 14:51:46;;;;;;;3.50;2.13;;;;;;;;;;5044072;28;20232;-52
2022/06/24 14:54:12;;;;;;;3.95;2.42;;;;;;;;;;5035977;28;20235;-50
2022/06/24 14:56:39;;;;;;;4.88;2.20;;;;;;;;;;5031430;28;20242;-50
2022/06/24 14:59:05;;;;;;;1.90;1.63;;;;;;;;;;5034353;28;20232;-50
2022/06/24 15:01:32;;;;;;;4.22;2.00;;;;;;;;;;5048439;28;20227;-51
2022/06/24 15:03:58;;;;;;;3.35;1.95;;;;;;;;;;5030614;28;20237;-50
2022/06/24 15:06:27;;;;;;;4.40;2.58;;;;;;;;;;5030901;28;20239;-50